Time;durP1;ratioP1;P1;durP2;ratioP2;P2;SDS_P1;SDS_P2;PMS_P1;PMS_P2;Temp;Humidity;BMP_temperature;BMP_pressure;BME280_temperature;BME280_humidity;BME280_pressure;Samples;Min_cycle;Max_cycle;Signal;HPM_P1;HPM_P2
2021/12/31 00:07:28;;;;;;;1.77;1.10;;;12.40;72.40;;;;;;20976419;28;20037;-81
2021/12/31 00:17:29;;;;;;;1.77;1.30;;;12.40;72.60;;;;;;20975251;28;20052;-81
2021/12/31 00:27:29;;;;;;;2.13;1.20;;;12.40;72.80;;;;;;20958189;28;20094;-81
2021/12/31 00:37:32;;;;;;;2.45;0.90;;;12.40;73.10;;;;;;20989626;28;20416;-81
2021/12/31 00:47:34;;;;;;;1.27;0.80;;;12.40;73.10;;;;;;21006472;28;20065;-82
2021/12/31 00:57:34;;;;;;;1.17;0.80;;;12.30;73.20;;;;;;20988184;28;20064;-81
2021/12/31 01:07:35;;;;;;;2.17;1.10;;;12.40;73.40;;;;;;20971793;28;20841;-81
2021/12/31 01:18:03;;;;;;;1.60;0.98;;;12.40;73.50;;;;;;20985666;28;20497;-80
2021/12/31 01:28:05;;;;;;;1.00;0.70;;;12.30;73.50;;;;;;20974000;28;20036;-82
2021/12/31 01:38:05;;;;;;;1.88;0.60;;;12.30;73.50;;;;;;20952193;28;20032;-82
2021/12/31 01:48:20;;;;;;;3.80;0.80;;;12.30;73.50;;;;;;20984311;28;20032;-81
2021/12/31 01:58:22;;;;;;;1.42;0.68;;;12.30;73.50;;;;;;20954750;28;20036;-80
2021/12/31 02:08:23;;;;;;;1.05;0.60;;;12.30;73.50;;;;;;20999309;28;20429;-81
2021/12/31 02:18:23;;;;;;;1.50;0.55;;;12.30;73.50;;;;;;20949747;28;20093;-80
2021/12/31 02:28:24;;;;;;;2.22;0.90;;;12.30;73.50;;;;;;20965297;28;20051;-80
2021/12/31 02:38:25;;;;;;;1.05;0.82;;;12.30;73.50;;;;;;20966682;28;20167;-81
2021/12/31 02:48:27;;;;;;;0.73;0.60;;;12.30;73.50;;;;;;20963661;28;20040;-81
2021/12/31 02:58:28;;;;;;;0.75;0.60;;;12.30;73.60;;;;;;20962810;28;20098;-81
2021/12/31 03:08:30;;;;;;;0.70;0.52;;;12.30;73.60;;;;;;20978895;28;20506;-81
2021/12/31 03:18:31;;;;;;;0.95;0.50;;;12.30;73.70;;;;;;20979906;28;20032;-81
2021/12/31 03:28:34;;;;;;;0.40;0.40;;;12.30;73.90;;;;;;20961478;28;20075;-81
2021/12/31 03:38:35;;;;;;;1.23;0.60;;;12.30;73.90;;;;;;20978092;28;20424;-81
2021/12/31 03:48:35;;;;;;;1.02;0.65;;;12.20;73.90;;;;;;20943818;28;20140;-81
2021/12/31 03:58:37;;;;;;;0.68;0.45;;;12.30;74.00;;;;;;20944462;28;20075;-80
2021/12/31 04:08:38;;;;;;;2.40;0.60;;;12.20;74.00;;;;;;20976861;28;20035;-81
2021/12/31 04:18:38;;;;;;;0.75;0.50;;;12.20;74.00;;;;;;20958862;28;20028;-80
2021/12/31 04:28:39;;;;;;;2.00;0.80;;;12.40;74.20;;;;;;20959157;28;20048;-80
2021/12/31 04:38:40;;;;;;;0.73;0.50;;;12.20;74.20;;;;;;20942260;28;20378;-81
2021/12/31 04:48:43;;;;;;;1.13;0.50;;;12.20;74.20;;;;;;20965730;28;20032;-81
2021/12/31 04:58:44;;;;;;;2.45;0.63;;;12.30;74.30;;;;;;20989424;28;20029;-82
2021/12/31 05:08:46;;;;;;;0.50;0.50;;;12.30;74.30;;;;;;20972416;28;20124;-81
2021/12/31 05:18:46;;;;;;;4.18;0.75;;;12.40;74.10;;;;;;20971084;28;20021;-80
2021/12/31 05:28:47;;;;;;;0.57;0.57;;;12.80;73.00;;;;;;21004077;28;20043;-81
2021/12/31 05:38:49;;;;;;;0.60;0.50;;;13.40;71.40;;;;;;20953461;28;20040;-81
2021/12/31 05:48:50;;;;;;;0.77;0.60;;;13.90;69.70;;;;;;20984339;28;20110;-82
2021/12/31 05:58:52;;;;;;;0.88;0.60;;;14.20;69.00;;;;;;20982870;28;20086;-80
2021/12/31 06:08:52;;;;;;;0.60;0.50;;;14.40;67.40;;;;;;20982868;28;20401;-81
2021/12/31 06:18:53;;;;;;;1.92;0.70;;;14.50;67.10;;;;;;20980849;28;20108;-80
2021/12/31 06:28:54;;;;;;;1.38;0.57;;;14.20;67.30;;;;;;20980015;28;20108;-81
2021/12/31 06:38:57;;;;;;;0.50;0.45;;;13.80;68.20;;;;;;20963157;28;20044;-81
2021/12/31 06:48:57;;;;;;;0.77;0.60;;;13.50;69.30;;;;;;20978118;28;20044;-82
2021/12/31 06:58:58;;;;;;;2.35;0.50;;;13.20;70.40;;;;;;20994278;28;20031;-81
2021/12/31 07:08:59;;;;;;;0.50;0.50;;;13.00;71.20;;;;;;20976917;28;20127;-80
2021/12/31 07:19:00;;;;;;;2.35;0.80;;;12.80;71.90;;;;;;20960627;28;20028;-83
2021/12/31 07:29:01;;;;;;;1.00;0.60;;;12.70;72.50;;;;;;20961946;28;20041;-82
2021/12/31 07:39:08;;;;;;;0.80;0.60;;;12.60;72.90;;;;;;20978226;28;20426;-83
2021/12/31 07:49:09;;;;;;;0.40;0.40;;;12.50;73.20;;;;;;20946097;28;20037;-84
2021/12/31 07:59:10;;;;;;;0.75;0.68;;;12.40;73.50;;;;;;20942266;28;20086;-80
2021/12/31 08:09:11;;;;;;;1.33;0.65;;;12.40;73.60;;;;;;20893047;28;20048;-84
2021/12/31 08:19:11;;;;;;;2.00;0.70;;;12.40;73.70;;;;;;20863446;28;20143;-83
2021/12/31 08:29:13;;;;;;;1.58;0.88;;;12.40;73.70;;;;;;20874471;28;20129;-80
2021/12/31 08:39:14;;;;;;;0.80;0.60;;;12.40;73.70;;;;;;20906606;28;20025;-79
2021/12/31 08:49:15;;;;;;;0.60;0.40;;;12.40;73.70;;;;;;20904280;28;20485;-82
2021/12/31 08:59:17;;;;;;;5.10;0.63;;;12.40;73.70;;;;;;20888230;28;20326;-83
2021/12/31 09:09:18;;;;;;;1.40;0.70;;;12.40;73.70;;;;;;20923165;28;20062;-79
2021/12/31 09:19:20;;;;;;;0.45;0.43;;;12.40;73.60;;;;;;20965841;28;20028;-78
2021/12/31 09:29:23;;;;;;;3.38;0.60;;;12.40;73.60;;;;;;20992852;28;20513;-81
2021/12/31 09:39:23;;;;;;;0.93;0.60;;;12.40;73.60;;;;;;20963456;28;20119;-80
2021/12/31 09:49:24;;;;;;;0.80;0.50;;;12.50;73.80;;;;;;20963116;28;20086;-78
2021/12/31 09:59:27;;;;;;;0.32;0.32;;;12.50;74.10;;;;;;20947731;28;20535;-76
2021/12/31 10:09:27;;;;;;;3.60;0.68;;;12.50;74.40;;;;;;20911367;28;20039;-75
2021/12/31 10:19:28;;;;;;;1.83;0.50;;;12.50;74.70;;;;;;20938102;28;20040;-76
2021/12/31 10:29:28;;;;;;;0.98;0.60;;;12.50;75.00;;;;;;20928755;28;20099;-75
2021/12/31 10:39:31;;;;;;;4.10;0.65;;;12.50;75.10;;;;;;20906531;28;20032;-76
2021/12/31 10:49:31;;;;;;;0.73;0.60;;;12.50;75.30;;;;;;20884691;28;20132;-77
2021/12/31 10:59:33;;;;;;;1.80;0.50;;;12.50;75.40;;;;;;20873095;28;20120;-76
2021/12/31 11:09:35;;;;;;;0.88;0.70;;;12.50;75.60;;;;;;20905494;28;20063;-77
2021/12/31 11:19:39;;;;;;;2.83;0.57;;;12.60;75.50;;;;;;20935595;28;20094;-76
2021/12/31 11:29:40;;;;;;;1.25;0.70;;;12.90;74.90;;;;;;21252710;22;20549;-88
2021/12/31 11:39:41;;;;;;;1.63;0.52;;;13.30;73.80;;;;;;20808339;28;20033;-85
2021/12/31 11:49:45;;;;;;;3.53;0.70;;;13.60;72.70;;;;;;20792318;28;20483;-83
2021/12/31 11:59:52;;;;;;;1.92;1.08;;;13.90;71.90;;;;;;20823167;28;20037;-85
2021/12/31 12:09:52;;;;;;;1.92;0.90;;;14.10;71.30;;;;;;20810675;28;20044;-84
2021/12/31 12:19:53;;;;;;;1.17;0.85;;;14.10;71.10;;;;;;20826897;28;20397;-79
2021/12/31 12:29:54;;;;;;;1.38;0.88;;;14.00;71.00;;;;;;20836886;28;20368;-81
2021/12/31 12:39:59;;;;;;;1.00;0.80;;;13.80;71.60;;;;;;20807022;28;20116;-81
2021/12/31 12:50:01;;;;;;;3.78;1.20;;;13.50;72.30;;;;;;20805215;28;20476;-79
2021/12/31 13:00:02;;;;;;;3.60;1.10;;;13.30;73.10;;;;;;20800416;28;20103;-84
2021/12/31 13:10:08;;;;;;;4.90;0.88;;;13.20;73.80;;;;;;20757017;28;20085;-80
2021/12/31 13:20:12;;;;;;;2.88;0.90;;;13.00;74.30;;;;;;20799544;28;20628;-81
2021/12/31 13:30:13;;;;;;;1.58;0.95;;;12.90;74.70;;;;;;20800709;28;20045;-80
2021/12/31 13:40:20;;;;;;;0.80;0.63;;;12.80;75.10;;;;;;20784425;28;20039;-83
2021/12/31 13:50:22;;;;;;;1.00;0.80;;;12.80;75.50;;;;;;20738327;28;20034;-79
2021/12/31 14:00:24;;;;;;;0.90;0.80;;;12.70;75.80;;;;;;20734340;28;20120;-79
2021/12/31 14:10:26;;;;;;;0.98;0.80;;;12.60;75.80;;;;;;20733405;28;20396;-79
2021/12/31 14:20:29;;;;;;;1.25;0.77;;;12.60;76.00;;;;;;20731230;28;20041;-79
2021/12/31 14:30:31;;;;;;;3.30;0.88;;;12.60;76.10;;;;;;20786524;28;20045;-82
2021/12/31 14:40:31;;;;;;;3.03;1.08;;;12.50;76.20;;;;;;20797151;28;20060;-79
2021/12/31 14:51:05;;;;;;;1.02;0.80;;;12.60;76.30;;;;;;20811889;28;20030;-80
2021/12/31 15:01:06;;;;;;;0.57;0.57;;;12.60;76.50;;;;;;20814293;28;20041;-78
2021/12/31 15:11:07;;;;;;;1.27;0.90;;;12.60;76.60;;;;;;20810921;28;20108;-81
2021/12/31 15:21:09;;;;;;;0.95;0.70;;;12.60;76.70;;;;;;20808737;28;20304;-78
2021/12/31 15:31:09;;;;;;;0.75;0.60;;;12.50;76.80;;;;;;20811120;28;20034;-76
2021/12/31 15:41:10;;;;;;;2.00;0.70;;;12.50;76.90;;;;;;20803980;28;20116;-75
2021/12/31 15:51:11;;;;;;;0.73;0.70;;;12.60;76.80;;;;;;20793272;28;20820;-76
2021/12/31 16:01:11;;;;;;;1.52;0.80;;;12.90;76.40;;;;;;20788219;28;20068;-77
2021/12/31 16:11:12;;;;;;;1.80;0.80;;;13.20;75.80;;;;;;20787159;28;20049;-75
2021/12/31 16:21:13;;;;;;;2.72;0.55;;;13.50;75.00;;;;;;20782082;28;20037;-77
2021/12/31 16:31:13;;;;;;;1.35;0.73;;;13.70;74.20;;;;;;20785501;28;20037;-75
2021/12/31 16:41:14;;;;;;;1.83;0.70;;;13.80;73.70;;;;;;20820834;28;20494;-74
2021/12/31 16:51:14;;;;;;;2.22;1.00;;;13.70;73.70;;;;;;20818475;28;20300;-75
2021/12/31 17:01:15;;;;;;;2.92;1.05;;;13.50;74.10;;;;;;20832885;28;20029;-75
2021/12/31 17:11:16;;;;;;;1.48;0.95;;;13.20;74.70;;;;;;20818383;28;20034;-74
2021/12/31 17:21:16;;;;;;;2.13;1.15;;;13.10;75.30;;;;;;20820851;28;20043;-77
2021/12/31 17:31:17;;;;;;;0.77;0.65;;;12.90;75.90;;;;;;20835445;28;20030;-74
2021/12/31 17:41:17;;;;;;;2.15;0.93;;;12.80;76.30;;;;;;20817768;28;20053;-76
2021/12/31 17:51:19;;;;;;;1.75;1.05;;;12.70;76.70;;;;;;20735282;28;20061;-76
2021/12/31 18:01:21;;;;;;;2.85;0.90;;;12.60;77.10;;;;;;20750810;28;20026;-81
2021/12/31 18:11:24;;;;;;;2.00;1.33;;;12.60;77.50;;;;;;20786166;28;20060;-75
2021/12/31 18:21:24;;;;;;;2.10;1.10;;;12.60;77.90;;;;;;20797170;28;20630;-75
2021/12/31 18:31:25;;;;;;;2.55;1.30;;;12.50;78.10;;;;;;20812380;28;20044;-84
2021/12/31 18:41:26;;;;;;;1.75;1.30;;;12.50;78.40;;;;;;20796080;28;20029;-76
2021/12/31 18:51:27;;;;;;;1.98;1.25;;;12.40;78.60;;;;;;20794648;28;20033;-73
2021/12/31 19:01:28;;;;;;;2.72;1.40;;;12.50;78.70;;;;;;20825380;28;20044;-77
2021/12/31 19:11:29;;;;;;;1.95;1.38;;;12.50;78.80;;;;;;20825629;28;20037;-79
2021/12/31 19:21:30;;;;;;;2.67;1.40;;;12.40;78.80;;;;;;20750280;28;20124;-80
2021/12/31 19:31:30;;;;;;;1.70;1.43;;;12.50;78.80;;;;;;20790058;28;20042;-77
2021/12/31 19:41:33;;;;;;;3.95;1.70;;;12.50;78.80;;;;;;20775697;28;20295;-79
2021/12/31 19:51:34;;;;;;;1.85;1.40;;;12.50;78.70;;;;;;20806916;28;20029;-79
2021/12/31 20:01:34;;;;;;;4.20;1.50;;;12.50;78.70;;;;;;20774869;28;20034;-79
2021/12/31 20:11:39;;;;;;;2.50;1.27;;;12.50;78.70;;;;;;20807376;28;20129;-78
2021/12/31 20:21:40;;;;;;;2.17;1.42;;;12.50;78.60;;;;;;20803033;28;20057;-78
2021/12/31 20:31:41;;;;;;;2.35;1.40;;;12.50;78.60;;;;;;20839713;28;20653;-83
2021/12/31 20:41:43;;;;;;;1.98;1.40;;;12.50;78.70;;;;;;20807197;28;20127;-82
2021/12/31 20:51:45;;;;;;;2.58;1.92;;;12.50;78.70;;;;;;20839967;28;20040;-83
2021/12/31 21:01:45;;;;;;;5.45;2.13;;;12.50;78.60;;;;;;20820277;28;20037;-78
2021/12/31 21:11:46;;;;;;;4.30;2.05;;;12.50;78.60;;;;;;20834900;28;20476;-81
2021/12/31 21:21:47;;;;;;;4.57;2.22;;;12.50;78.60;;;;;;20784296;28;20040;-79
2021/12/31 21:31:48;;;;;;;3.38;2.10;;;12.50;78.60;;;;;;20752101;28;20112;-79
2021/12/31 21:41:48;;;;;;;5.72;2.55;;;12.50;78.60;;;;;;20738555;28;20042;-79
2021/12/31 21:51:50;;;;;;;3.13;2.00;;;12.60;78.70;;;;;;20801163;28;20065;-82
2021/12/31 22:01:51;;;;;;;3.17;2.10;;;12.50;78.60;;;;;;20784017;28;20072;-73
2021/12/31 22:11:51;;;;;;;3.17;2.50;;;12.50;78.70;;;;;;20758995;28;20025;-75
2021/12/31 22:21:52;;;;;;;3.10;2.22;;;12.50;78.80;;;;;;20810422;28;20045;-77
2021/12/31 22:31:52;;;;;;;5.88;2.42;;;12.50;78.80;;;;;;20794684;28;20504;-77
2021/12/31 22:41:53;;;;;;;3.42;2.00;;;12.50;78.80;;;;;;20791326;28;20498;-77
2021/12/31 22:51:54;;;;;;;5.07;2.53;;;12.50;78.90;;;;;;20727879;28;20084;-77
2021/12/31 23:01:58;;;;;;;4.80;2.28;;;12.50;78.90;;;;;;20728006;28;20492;-76
2021/12/31 23:11:58;;;;;;;3.83;2.75;;;12.40;78.90;;;;;;20727794;28;20037;-78
2021/12/31 23:21:59;;;;;;;6.10;3.22;;;12.50;79.10;;;;;;20805489;28;20430;-75
2021/12/31 23:32:00;;;;;;;5.47;2.45;;;12.40;79.00;;;;;;20726690;28;20100;-81
2021/12/31 23:42:17;;;;;;;4.40;2.72;;;12.40;79.10;;;;;;20728096;28;20037;-82
2021/12/31 23:52:17;;;;;;;;;;;12.50;79.10;;;;;;20755754;28;20076;-82
